Time;durP1;ratioP1;P1;durP2;ratioP2;P2;SDS_P1;SDS_P2;PMS_P1;PMS_P2;Temp;Humidity;BMP_temperature;BMP_pressure;BME280_temperature;BME280_humidity;BME280_pressure;Samples;Min_cycle;Max_cycle;Signal;HPM_P1;HPM_P2
2020/12/02 00:00:46;;;;;;;40.58;29.77;;;0.70;1.00;;;;;;5076129;28;20227;-75
2020/12/02 00:03:18;;;;;;;38.85;30.55;;;0.70;1.00;;;;;;5082813;28;20275;-74
2020/12/02 00:05:47;;;;;;;39.03;29.10;;;0.70;1.00;;;;;;5079235;28;20216;-75
2020/12/02 00:08:18;;;;;;;43.80;30.10;;;0.60;1.00;;;;;;5081244;28;20220;-74
2020/12/02 00:10:45;;;;;;;38.50;30.00;;;0.60;1.00;;;;;;5079846;28;20308;-74
2020/12/02 00:13:15;;;;;;;42.38;30.35;;;0.60;1.00;;;;;;5087758;28;20263;-74
2020/12/02 00:15:41;;;;;;;41.22;29.23;;;0.60;1.00;;;;;;5093052;28;20228;-74
2020/12/02 00:18:08;;;;;;;42.38;30.67;;;0.60;1.00;;;;;;5101327;28;20299;-74
2020/12/02 00:20:34;;;;;;;41.40;29.48;;;0.50;1.00;;;;;;5104932;28;20961;-74
2020/12/02 00:23:01;;;;;;;40.90;29.20;;;0.50;1.00;;;;;;5098099;28;20273;-74
2020/12/02 00:25:27;;;;;;;44.13;30.40;;;0.50;1.00;;;;;;5080823;28;20225;-74
2020/12/02 00:27:54;;;;;;;41.03;31.40;;;0.50;1.00;;;;;;5082429;28;20313;-75
2020/12/02 00:30:20;;;;;;;38.78;28.33;;;0.50;1.00;;;;;;5075116;28;20213;-74
2020/12/02 00:32:48;;;;;;;37.17;28.98;;;0.50;1.00;;;;;;5080537;28;20228;-74
2020/12/02 00:35:16;;;;;;;42.50;29.75;;;0.50;1.00;;;;;;5080871;28;20368;-75
2020/12/02 00:37:43;;;;;;;38.08;29.70;;;0.50;1.00;;;;;;5071934;28;21015;-75
2020/12/02 00:40:12;;;;;;;39.80;29.95;;;0.50;1.00;;;;;;5078972;28;20224;-75
2020/12/02 00:42:38;;;;;;;39.17;29.55;;;0.50;1.00;;;;;;5072254;28;20255;-75
2020/12/02 00:45:07;;;;;;;44.60;30.38;;;0.50;1.00;;;;;;5082385;28;20235;-74
2020/12/02 00:47:34;;;;;;;42.97;31.55;;;0.40;1.00;;;;;;5075883;28;20216;-74
2020/12/02 00:50:00;;;;;;;40.05;30.48;;;0.50;1.00;;;;;;5078682;28;20343;-74
2020/12/02 00:52:27;;;;;;;42.72;29.50;;;0.40;1.00;;;;;;5073262;28;20307;-75
2020/12/02 00:54:53;;;;;;;47.55;32.47;;;0.40;1.00;;;;;;5088876;28;20240;-74
2020/12/02 00:57:28;;;;;;;43.95;32.03;;;0.40;1.00;;;;;;5089525;28;20323;-74
2020/12/02 00:59:58;;;;;;;41.55;30.27;;;0.40;1.00;;;;;;5081893;28;20287;-74
2020/12/02 01:02:33;;;;;;;42.15;30.60;;;0.40;1.00;;;;;;5077651;28;20742;-75
2020/12/02 01:05:00;;;;;;;42.30;31.35;;;0.40;1.00;;;;;;5078276;28;20224;-75
2020/12/02 01:07:28;;;;;;;41.13;30.35;;;0.30;1.00;;;;;;5079075;28;20214;-74
2020/12/02 01:09:55;;;;;;;44.45;31.75;;;0.30;1.00;;;;;;5073508;28;20217;-75
2020/12/02 01:12:21;;;;;;;37.17;29.73;;;0.30;1.00;;;;;;5076434;28;20585;-75
2020/12/02 01:14:48;;;;;;;42.10;30.65;;;0.30;1.00;;;;;;5096587;28;20229;-75
2020/12/02 01:17:15;;;;;;;45.10;31.45;;;0.30;1.00;;;;;;5093833;28;20240;-74
2020/12/02 01:19:42;;;;;;;46.35;33.90;;;0.20;1.00;;;;;;5091215;28;20251;-74
2020/12/02 01:22:14;;;;;;;37.25;27.83;;;0.20;1.00;;;;;;5086942;28;20954;-75
2020/12/02 01:24:48;;;;;;;40.47;30.33;;;0.20;1.00;;;;;;5080469;28;20231;-75
2020/12/02 01:27:23;;;;;;;42.08;31.08;;;0.20;1.00;;;;;;5073100;28;20226;-75
2020/12/02 01:29:51;;;;;;;40.17;29.20;;;0.10;1.00;;;;;;5086545;28;20232;-75
2020/12/02 01:32:17;;;;;;;49.45;32.05;;;0.10;1.00;;;;;;5074218;28;20287;-75
2020/12/02 01:34:49;;;;;;;45.38;31.30;;;0.10;1.00;;;;;;5076906;28;20225;-74
2020/12/02 01:37:28;;;;;;;41.78;30.85;;;0.10;1.00;;;;;;5083781;28;20228;-75
2020/12/02 01:40:01;;;;;;;42.10;29.95;;;0.10;1.00;;;;;;5081130;28;20998;-75
2020/12/02 01:42:28;;;;;;;46.05;32.65;;;0.10;1.00;;;;;;5080090;28;20216;-75
2020/12/02 01:44:55;;;;;;;41.75;30.05;;;0.10;1.00;;;;;;5070915;28;20301;-75
2020/12/02 01:47:37;;;;;;;44.83;31.02;;;0.10;1.00;;;;;;5085866;28;20247;-74
2020/12/02 01:50:08;;;;;;;51.03;31.23;;;0.10;1.00;;;;;;5078581;28;20220;-74
2020/12/02 01:52:54;;;;;;;40.05;29.90;;;0.10;1.00;;;;;;5084042;28;20734;-75
2020/12/02 01:55:28;;;;;;;40.17;29.95;;;0.10;1.00;;;;;;5077428;28;20315;-74
2020/12/02 01:58:00;;;;;;;44.58;30.17;;;0.10;1.00;;;;;;5079709;28;20626;-74
2020/12/02 02:00:31;;;;;;;44.42;31.02;;;0.10;1.00;;;;;;5075545;28;20945;-74
2020/12/02 02:03:06;;;;;;;41.75;31.05;;;0.10;1.00;;;;;;5083455;28;20243;-75
2020/12/02 02:05:42;;;;;;;44.10;31.75;;;0.10;1.00;;;;;;5078845;28;20307;-75
2020/12/02 02:08:08;;;;;;;43.05;31.50;;;0.10;1.00;;;;;;5095081;27;20996;-75
2020/12/02 02:10:38;;;;;;;46.55;31.10;;;0.10;1.00;;;;;;5086634;28;20224;-75
2020/12/02 02:13:28;;;;;;;42.28;31.85;;;0.10;1.00;;;;;;5079868;28;20317;-74
2020/12/02 02:15:57;;;;;;;44.50;30.02;;;0.10;1.00;;;;;;5090385;28;20984;-75
2020/12/02 02:18:26;;;;;;;43.70;29.65;;;0.10;1.00;;;;;;5088956;27;20313;-75
2020/12/02 02:20:58;;;;;;;42.25;29.58;;;0.10;1.00;;;;;;5084246;28;20323;-75
2020/12/02 02:23:24;;;;;;;43.88;31.13;;;0.10;1.00;;;;;;5078383;28;20224;-74
2020/12/02 02:26:03;;;;;;;41.20;30.77;;;0.10;1.00;;;;;;5079677;28;20213;-75
2020/12/02 02:28:32;;;;;;;39.60;28.65;;;0.10;1.00;;;;;;5080589;28;20234;-75
2020/12/02 02:30:58;;;;;;;40.85;30.40;;;0.10;1.00;;;;;;5076344;28;21536;-75
2020/12/02 02:33:27;;;;;;;42.17;30.38;;;0.10;1.00;;;;;;5082961;28;20331;-73
2020/12/02 02:35:53;;;;;;;41.80;29.95;;;0.00;1.00;;;;;;5077792;28;21013;-73
2020/12/02 02:38:21;;;;;;;39.22;28.55;;;0.00;1.00;;;;;;5083379;28;20720;-73
2020/12/02 02:40:48;;;;;;;43.75;32.80;;;0.10;1.00;;;;;;5081128;28;20216;-73
2020/12/02 02:43:16;;;;;;;41.97;30.73;;;0.10;1.00;;;;;;5079830;28;20213;-74
2020/12/02 02:45:42;;;;;;;42.70;31.75;;;0.00;1.00;;;;;;5076131;28;20224;-74
2020/12/02 02:48:08;;;;;;;45.00;31.55;;;0.00;1.00;;;;;;5084804;28;20316;-74
2020/12/02 02:50:36;;;;;;;49.35;33.78;;;0.00;1.00;;;;;;5089318;28;21088;-74
2020/12/02 02:53:09;;;;;;;44.42;31.55;;;0.00;1.00;;;;;;5089058;28;20216;-74
2020/12/02 02:55:35;;;;;;;41.58;30.92;;;0.00;1.00;;;;;;5090441;28;20220;-74
2020/12/02 02:58:01;;;;;;;44.38;30.80;;;0.00;1.00;;;;;;5087602;28;20236;-74
2020/12/02 03:00:31;;;;;;;46.13;32.10;;;0.00;1.00;;;;;;5092530;28;20279;-74
2020/12/02 03:02:58;;;;;;;41.47;29.25;;;0.00;1.00;;;;;;5077635;28;21081;-74
2020/12/02 03:05:25;;;;;;;47.67;31.85;;;0.00;1.00;;;;;;5082671;28;20779;-73
2020/12/02 03:07:55;;;;;;;48.72;33.80;;;0.00;1.00;;;;;;5082865;28;20239;-74
2020/12/02 03:10:25;;;;;;;44.10;30.17;;;-0.10;1.00;;;;;;5080017;28;20306;-74
2020/12/02 03:12:52;;;;;;;40.33;31.17;;;-0.10;1.00;;;;;;5076916;28;20224;-74
2020/12/02 03:15:20;;;;;;;47.60;32.00;;;-0.10;1.00;;;;;;5078913;28;20221;-74
2020/12/02 03:17:47;;;;;;;42.55;30.60;;;-0.10;1.00;;;;;;5076157;28;20406;-74
2020/12/02 03:20:17;;;;;;;47.65;31.98;;;-0.10;1.00;;;;;;5081345;28;20223;-73
2020/12/02 03:22:43;;;;;;;44.97;31.30;;;-0.10;1.00;;;;;;5081926;28;20219;-74
2020/12/02 03:25:14;;;;;;;45.13;31.73;;;-0.10;1.00;;;;;;5079619;28;20215;-74
2020/12/02 03:27:40;;;;;;;50.83;33.65;;;-0.10;1.00;;;;;;5075421;28;20301;-74
2020/12/02 03:30:06;;;;;;;46.50;32.05;;;-0.20;1.00;;;;;;5084156;28;20708;-74
2020/12/02 03:32:32;;;;;;;47.80;32.75;;;-0.10;1.00;;;;;;5083544;28;20228;-74
2020/12/02 03:34:59;;;;;;;47.90;33.75;;;-0.10;1.00;;;;;;5082423;28;20252;-74
2020/12/02 03:37:25;;;;;;;53.80;35.50;;;-0.20;1.00;;;;;;5082498;28;20713;-74
2020/12/02 03:39:52;;;;;;;41.95;32.63;;;-0.20;1.00;;;;;;5082094;28;20716;-74
2020/12/02 03:42:18;;;;;;;50.33;35.17;;;-0.20;1.00;;;;;;5087215;28;20262;-74
2020/12/02 03:44:44;;;;;;;42.30;33.00;;;-0.20;1.00;;;;;;5091254;28;20772;-74
2020/12/02 03:47:10;;;;;;;44.88;34.38;;;-0.20;1.00;;;;;;5099140;28;20311;-74
2020/12/02 03:49:36;;;;;;;50.25;34.30;;;-0.20;1.00;;;;;;5097297;28;20224;-75
2020/12/02 03:52:03;;;;;;;47.70;34.58;;;-0.20;1.00;;;;;;5098857;28;20235;-74
2020/12/02 03:54:30;;;;;;;51.53;34.08;;;-0.30;1.00;;;;;;5089371;28;20223;-74
2020/12/02 03:56:56;;;;;;;51.83;34.92;;;-0.30;1.00;;;;;;5083431;28;20277;-74
2020/12/02 03:59:22;;;;;;;48.30;33.70;;;-0.40;1.00;;;;;;5086616;28;20721;-74
2020/12/02 04:01:48;;;;;;;52.63;33.08;;;-0.30;1.00;;;;;;5080217;28;20328;-75
2020/12/02 04:04:14;;;;;;;54.25;35.00;;;-0.30;1.00;;;;;;5091704;28;20239;-74
2020/12/02 04:06:40;;;;;;;52.05;36.85;;;-0.40;1.00;;;;;;5084667;28;20231;-74
2020/12/02 04:09:08;;;;;;;56.05;36.55;;;-0.40;1.00;;;;;;5082236;28;20296;-74
2020/12/02 04:11:34;;;;;;;55.97;36.10;;;-0.40;1.00;;;;;;5076395;28;20320;-73
2020/12/02 04:14:00;;;;;;;54.70;34.30;;;-0.40;1.00;;;;;;5076852;28;20303;-74
2020/12/02 04:16:26;;;;;;;45.55;34.28;;;-0.40;1.00;;;;;;5080427;28;20248;-73
2020/12/02 04:18:52;;;;;;;57.50;38.00;;;-0.40;1.00;;;;;;5075977;28;20242;-73
2020/12/02 04:21:23;;;;;;;48.90;33.85;;;-0.50;1.00;;;;;;5081762;28;20303;-74
2020/12/02 04:23:50;;;;;;;55.85;39.20;;;-0.40;1.00;;;;;;5076231;28;20221;-73
2020/12/02 04:26:17;;;;;;;52.03;38.25;;;-0.40;1.00;;;;;;5082681;28;20307;-73
2020/12/02 04:28:43;;;;;;;55.20;38.05;;;-0.40;1.00;;;;;;5072522;28;20308;-75
2020/12/02 04:31:09;;;;;;;54.47;35.45;;;-0.40;1.00;;;;;;5081535;28;20240;-74
2020/12/02 04:33:35;;;;;;;56.13;39.67;;;-0.30;1.00;;;;;;5077647;28;20231;-73
2020/12/02 04:36:01;;;;;;;59.05;38.72;;;-0.30;1.00;;;;;;5082601;28;20309;-73
2020/12/02 04:38:28;;;;;;;62.55;38.30;;;-0.30;1.00;;;;;;5081230;28;20314;-72
2020/12/02 04:40:54;;;;;;;59.20;38.13;;;-0.30;1.00;;;;;;5075021;28;20313;-72
2020/12/02 04:43:32;;;;;;;57.80;39.50;;;-0.30;1.00;;;;;;5080420;28;20246;-74
2020/12/02 04:45:58;;;;;;;61.95;37.58;;;-0.30;1.00;;;;;;5079466;28;20208;-73
2020/12/02 04:48:29;;;;;;;58.72;36.80;;;-0.30;1.00;;;;;;5082336;28;20230;-74
2020/12/02 04:50:59;;;;;;;54.90;39.58;;;-0.30;1.00;;;;;;5077606;28;20542;-73
2020/12/02 04:53:25;;;;;;;55.85;37.72;;;-0.40;1.00;;;;;;5081519;28;20216;-74
2020/12/02 04:55:54;;;;;;;58.17;38.78;;;-0.40;1.00;;;;;;5076376;28;20223;-74
2020/12/02 04:58:28;;;;;;;60.92;41.60;;;-0.40;1.00;;;;;;5077904;27;20335;-74
2020/12/02 05:00:55;;;;;;;63.95;41.40;;;-0.40;1.00;;;;;;5083716;28;21088;-74
2020/12/02 05:03:23;;;;;;;57.97;39.70;;;-0.40;1.00;;;;;;5083104;28;20231;-75
2020/12/02 05:06:00;;;;;;;66.97;43.20;;;-0.40;1.00;;;;;;5083466;28;20245;-74
2020/12/02 05:08:29;;;;;;;58.45;41.15;;;-0.30;1.00;;;;;;5079345;28;20227;-72
2020/12/02 05:10:57;;;;;;;59.55;41.20;;;-0.30;1.00;;;;;;5085592;28;20228;-73
2020/12/02 05:13:25;;;;;;;57.83;38.45;;;-0.30;1.00;;;;;;5084658;28;20230;-73
2020/12/02 05:16:05;;;;;;;64.28;41.15;;;-0.30;1.00;;;;;;5080940;28;20712;-75
2020/12/02 05:18:31;;;;;;;56.22;40.65;;;-0.20;1.00;;;;;;5099273;28;20327;-74
2020/12/02 05:21:04;;;;;;;62.08;40.30;;;-0.20;1.00;;;;;;5107123;28;20242;-73
2020/12/02 05:23:30;;;;;;;73.05;45.97;;;-0.20;1.00;;;;;;5107702;28;20239;-73
2020/12/02 05:25:56;;;;;;;55.80;42.38;;;-0.20;1.00;;;;;;5104215;28;20235;-73
2020/12/02 05:28:28;;;;;;;56.05;40.03;;;-0.20;1.00;;;;;;5101708;28;21070;-72
2020/12/02 05:31:04;;;;;;;56.50;38.72;;;-0.30;1.00;;;;;;5093517;28;21027;-73
2020/12/02 05:33:32;;;;;;;60.72;42.95;;;-0.30;1.00;;;;;;5083463;28;20253;-73
2020/12/02 05:36:02;;;;;;;58.90;40.03;;;-0.40;1.00;;;;;;5081302;28;20326;-73
2020/12/02 05:38:32;;;;;;;58.03;40.47;;;-0.40;1.00;;;;;;5082388;28;20271;-73
2020/12/02 05:41:00;;;;;;;66.70;42.83;;;-0.30;1.00;;;;;;5084714;28;20260;-74
2020/12/02 05:43:36;;;;;;;62.85;40.35;;;-0.30;1.00;;;;;;5083269;28;20244;-75
2020/12/02 05:46:02;;;;;;;91.65;67.05;;;-0.30;1.00;;;;;;5096796;28;20223;-73
2020/12/02 05:48:35;;;;;;;61.38;42.53;;;-0.30;1.00;;;;;;5083337;28;20760;-73
2020/12/02 05:51:01;;;;;;;59.42;42.53;;;-0.30;1.00;;;;;;5100822;28;21014;-74
2020/12/02 05:53:33;;;;;;;57.75;40.03;;;-0.40;1.00;;;;;;5104136;28;21209;-74
2020/12/02 05:56:01;;;;;;;64.97;45.40;;;-0.40;1.00;;;;;;5105518;28;20220;-74
2020/12/02 05:58:30;;;;;;;61.63;43.50;;;-0.40;1.00;;;;;;5101309;28;20247;-74
2020/12/02 06:00:57;;;;;;;71.78;43.70;;;-0.30;1.00;;;;;;5090864;28;20311;-74
2020/12/02 06:03:28;;;;;;;63.03;40.67;;;-0.30;1.00;;;;;;5106436;28;20243;-74
2020/12/02 06:05:59;;;;;;;76.50;46.33;;;-0.20;1.00;;;;;;5101297;28;20224;-73
2020/12/02 06:08:34;;;;;;;79.93;53.33;;;-0.20;1.00;;;;;;5101881;28;20223;-73
2020/12/02 06:11:22;;;;;;;87.57;59.28;;;-0.20;1.00;;;;;;5093920;28;20259;-73
2020/12/02 06:13:53;;;;;;;66.35;41.95;;;-0.20;1.00;;;;;;5084989;28;20311;-74
2020/12/02 06:16:34;;;;;;;64.13;45.10;;;-0.20;1.00;;;;;;5083222;28;20312;-73
2020/12/02 06:19:08;;;;;;;55.50;38.40;;;-0.20;1.00;;;;;;5085077;28;20236;-73
2020/12/02 06:21:39;;;;;;;61.55;42.30;;;-0.20;1.00;;;;;;5093055;28;20268;-75
2020/12/02 06:24:06;;;;;;;64.45;43.80;;;-0.20;1.00;;;;;;5098524;28;20245;-73
2020/12/02 06:26:34;;;;;;;74.30;51.15;;;-0.20;1.00;;;;;;5095748;28;20224;-73
2020/12/02 06:29:03;;;;;;;74.57;47.67;;;-0.20;1.00;;;;;;5100390;28;20227;-71
2020/12/02 06:31:31;;;;;;;69.75;47.92;;;-0.20;1.00;;;;;;5098389;28;20407;-74
2020/12/02 06:34:00;;;;;;;69.30;44.97;;;-0.10;1.00;;;;;;5098660;28;20250;-73
2020/12/02 06:36:29;;;;;;;64.30;42.72;;;-0.10;1.00;;;;;;5091379;28;20225;-75
2020/12/02 06:39:05;;;;;;;75.20;49.45;;;-0.10;1.00;;;;;;5084149;28;20332;-74
2020/12/02 06:41:38;;;;;;;71.30;51.15;;;-0.10;1.00;;;;;;5089548;28;20226;-74
2020/12/02 06:44:39;;;;;;;68.22;43.40;;;-0.10;1.00;;;;;;5086207;28;20859;-75
2020/12/02 06:47:19;;;;;;;56.92;39.65;;;0.00;1.00;;;;;;5102468;28;20264;-75
2020/12/02 06:49:45;;;;;;;58.70;41.50;;;0.00;1.00;;;;;;5101303;28;20220;-71
2020/12/02 06:52:24;;;;;;;58.25;40.85;;;0.00;1.00;;;;;;5099094;28;20323;-72
2020/12/02 06:54:50;;;;;;;68.07;41.42;;;0.10;1.00;;;;;;5102297;28;20236;-72
2020/12/02 06:57:22;;;;;;;60.25;42.08;;;0.10;1.00;;;;;;5099404;28;20366;-73
2020/12/02 06:59:51;;;;;;;60.45;39.50;;;0.10;1.00;;;;;;5103612;28;20243;-72
2020/12/02 07:02:32;;;;;;;57.28;40.28;;;0.10;1.00;;;;;;5098206;28;20963;-73
2020/12/02 07:05:04;;;;;;;59.30;41.38;;;0.10;1.00;;;;;;5097477;28;20225;-73
2020/12/02 07:07:31;;;;;;;63.17;42.22;;;0.10;1.00;;;;;;5104720;28;20284;-71
2020/12/02 07:09:57;;;;;;;61.30;39.72;;;0.10;1.00;;;;;;5102270;28;20279;-72
2020/12/02 07:12:23;;;;;;;61.03;41.72;;;0.10;1.00;;;;;;5104846;28;20350;-72
2020/12/02 07:14:51;;;;;;;53.42;39.97;;;0.10;1.00;;;;;;5111099;28;20224;-72
2020/12/02 07:17:21;;;;;;;59.15;39.20;;;0.10;1.00;;;;;;5099957;28;20231;-71
2020/12/02 07:19:48;;;;;;;69.78;40.97;;;0.10;1.00;;;;;;5105059;28;20220;-72
2020/12/02 07:22:19;;;;;;;60.58;42.17;;;0.10;1.00;;;;;;5102285;28;20229;-72
2020/12/02 07:24:47;;;;;;;65.88;42.40;;;0.20;1.00;;;;;;5096782;28;20273;-74
2020/12/02 07:27:15;;;;;;;63.97;46.70;;;0.20;1.00;;;;;;5100449;28;20242;-73
2020/12/02 07:29:42;;;;;;;62.20;41.33;;;0.20;1.00;;;;;;5101470;28;20216;-73
2020/12/02 07:32:14;;;;;;;71.93;46.15;;;0.20;1.00;;;;;;5101786;28;20231;-73
2020/12/02 07:34:41;;;;;;;65.55;42.63;;;0.30;1.00;;;;;;5097198;28;20273;-73
2020/12/02 07:37:11;;;;;;;61.92;44.70;;;0.30;1.00;;;;;;5105102;28;20221;-74
2020/12/02 07:39:45;;;;;;;62.67;43.20;;;0.30;1.00;;;;;;5100935;28;20295;-74
2020/12/02 07:42:16;;;;;;;66.72;45.33;;;0.40;1.00;;;;;;5101147;28;20209;-75
2020/12/02 07:44:48;;;;;;;71.38;44.00;;;0.40;1.00;;;;;;5083232;28;21562;-74
2020/12/02 07:47:17;;;;;;;66.63;44.72;;;0.50;1.00;;;;;;5096386;28;20216;-74
2020/12/02 07:49:55;;;;;;;75.28;48.20;;;0.50;1.00;;;;;;5104997;28;20224;-73
2020/12/02 07:52:26;;;;;;;72.13;47.80;;;0.60;1.00;;;;;;5110458;28;20534;-74
2020/12/02 07:54:54;;;;;;;75.43;48.97;;;0.70;1.00;;;;;;5099413;28;20280;-74
2020/12/02 07:57:23;;;;;;;71.20;49.50;;;0.70;1.00;;;;;;5096640;28;20865;-73
2020/12/02 08:00:15;;;;;;;65.60;43.67;;;0.70;1.00;;;;;;5094224;28;20288;-73
2020/12/02 08:02:45;;;;;;;73.55;49.17;;;0.80;1.00;;;;;;5094504;28;20269;-76
2020/12/02 08:05:34;;;;;;;63.75;42.38;;;0.80;1.00;;;;;;5084010;28;20240;-73
2020/12/02 08:08:00;;;;;;;62.28;45.70;;;0.90;1.00;;;;;;5076688;28;20217;-73
2020/12/02 08:10:30;;;;;;;75.93;44.13;;;1.00;1.00;;;;;;5086196;28;20243;-72
2020/12/02 08:12:57;;;;;;;67.68;45.20;;;1.00;1.00;;;;;;5090224;28;20281;-74
2020/12/02 08:15:24;;;;;;;66.15;45.17;;;1.00;1.00;;;;;;5080815;28;20255;-75
2020/12/02 08:18:13;;;;;;;68.43;43.15;;;1.10;1.00;;;;;;5082378;28;20710;-73
2020/12/02 08:20:41;;;;;;;61.45;42.15;;;1.10;1.00;;;;;;5084918;28;20216;-72
2020/12/02 08:23:10;;;;;;;70.43;44.88;;;1.20;1.00;;;;;;5089106;28;20212;-73
2020/12/02 08:25:46;;;;;;;69.15;44.45;;;1.20;1.00;;;;;;5078309;28;20248;-73
2020/12/02 08:28:19;;;;;;;67.20;42.17;;;1.40;1.00;;;;;;5082126;28;20228;-75
2020/12/02 08:30:45;;;;;;;66.35;44.13;;;1.40;1.00;;;;;;5079262;28;20211;-73
2020/12/02 08:33:14;;;;;;;69.35;44.20;;;1.50;1.00;;;;;;5083781;28;20273;-73
2020/12/02 08:35:43;;;;;;;68.10;43.67;;;1.60;1.00;;;;;;5073623;28;20468;-77
2020/12/02 08:38:14;;;;;;;64.07;43.10;;;1.70;1.00;;;;;;5083546;28;21030;-72
2020/12/02 08:40:46;;;;;;;63.70;44.25;;;1.70;1.00;;;;;;5087620;28;20228;-75
2020/12/02 08:43:18;;;;;;;60.58;41.35;;;1.60;1.00;;;;;;5090198;28;20235;-73
2020/12/02 08:46:02;;;;;;;62.00;42.15;;;1.60;1.00;;;;;;5090998;28;20590;-75
2020/12/02 08:48:29;;;;;;;64.90;44.08;;;1.60;1.00;;;;;;5082839;28;20235;-74
2020/12/02 08:50:55;;;;;;;64.60;42.08;;;1.70;1.00;;;;;;5083057;28;20248;-73
2020/12/02 08:53:25;;;;;;;65.25;44.25;;;1.70;1.00;;;;;;5078249;28;20230;-73
2020/12/02 08:55:53;;;;;;;64.70;45.17;;;1.70;1.00;;;;;;5080595;28;20295;-73
2020/12/02 08:58:19;;;;;;;61.63;43.35;;;1.80;1.00;;;;;;5087123;28;20232;-71
2020/12/02 09:00:45;;;;;;;67.63;45.47;;;1.80;1.00;;;;;;5090777;28;20723;-73
2020/12/02 09:03:11;;;;;;;66.55;44.70;;;1.90;1.00;;;;;;5080398;28;20256;-72
2020/12/02 09:05:38;;;;;;;185.65;155.02;;;2.00;1.00;;;;;;5085610;28;20240;-72
2020/12/02 09:08:04;;;;;;;63.38;43.90;;;2.10;1.00;;;;;;5079040;28;20247;-73
2020/12/02 09:10:30;;;;;;;60.10;40.03;;;2.20;1.00;;;;;;5085338;28;21042;-72
2020/12/02 09:12:58;;;;;;;57.72;41.45;;;2.20;1.00;;;;;;5081996;28;21196;-72
2020/12/02 09:15:26;;;;;;;59.78;42.17;;;2.30;1.00;;;;;;5100525;28;20220;-75
2020/12/02 09:17:54;;;;;;;61.55;43.10;;;2.20;1.00;;;;;;5100304;28;20228;-72
2020/12/02 09:20:20;;;;;;;65.15;41.75;;;2.30;1.00;;;;;;5094917;28;20239;-72
2020/12/02 09:22:46;;;;;;;67.88;45.10;;;2.30;1.00;;;;;;5088875;28;20229;-72
2020/12/02 09:25:12;;;;;;;65.57;41.28;;;2.30;1.00;;;;;;5091029;28;20225;-73
2020/12/02 09:27:39;;;;;;;66.85;44.25;;;2.20;1.00;;;;;;5082684;28;21150;-75
2020/12/02 09:30:07;;;;;;;56.15;40.15;;;2.20;1.00;;;;;;5077972;28;20317;-74
2020/12/02 09:32:33;;;;;;;62.00;41.35;;;2.20;1.00;;;;;;5076713;28;20304;-74
2020/12/02 09:34:59;;;;;;;62.92;44.80;;;2.30;1.00;;;;;;5078525;28;20752;-72
2020/12/02 09:37:26;;;;;;;56.85;40.42;;;2.30;1.00;;;;;;5085365;28;20274;-73
2020/12/02 09:39:55;;;;;;;64.55;45.67;;;2.40;1.00;;;;;;5079906;28;20264;-72
2020/12/02 09:42:40;;;;;;;61.63;41.30;;;2.40;1.00;;;;;;5083808;28;20318;-72
2020/12/02 09:45:11;;;;;;;57.67;41.63;;;2.50;1.00;;;;;;5081393;28;21542;-73
2020/12/02 09:47:38;;;;;;;68.25;43.15;;;2.40;1.00;;;;;;5085266;28;20693;-73
2020/12/02 09:50:05;;;;;;;53.60;41.35;;;2.50;1.00;;;;;;5089090;28;20944;-74
2020/12/02 09:52:44;;;;;;;56.55;40.90;;;2.50;1.00;;;;;;5086350;28;20252;-73
2020/12/02 09:55:15;;;;;;;53.47;39.70;;;2.60;1.00;;;;;;5088506;28;20221;-74
2020/12/02 09:57:41;;;;;;;60.55;42.78;;;2.60;1.00;;;;;;5091437;28;20284;-74
2020/12/02 10:00:10;;;;;;;58.70;40.95;;;2.50;1.00;;;;;;5084366;28;20238;-74
2020/12/02 10:03:06;;;;;;;60.80;43.45;;;2.40;1.00;;;;;;5085444;28;20307;-74
2020/12/02 10:05:58;;;;;;;56.05;40.58;;;2.30;1.00;;;;;;5090487;28;20216;-72
2020/12/02 10:08:42;;;;;;;63.40;42.38;;;2.20;1.00;;;;;;5050665;28;20234;-73
2020/12/02 10:11:16;;;;;;;58.28;42.10;;;2.20;1.00;;;;;;5077472;28;20279;-74
2020/12/02 10:13:56;;;;;;;62.22;42.17;;;2.20;1.00;;;;;;5077837;28;20219;-73
2020/12/02 10:16:31;;;;;;;60.30;40.53;;;2.30;1.00;;;;;;5074388;28;20340;-72
2020/12/02 10:19:23;;;;;;;61.28;40.92;;;2.50;1.00;;;;;;5077161;28;20251;-74
2020/12/02 10:22:09;;;;;;;58.28;40.55;;;2.60;1.00;;;;;;5075046;28;21542;-73
2020/12/02 10:24:46;;;;;;;66.85;45.03;;;2.70;1.00;;;;;;5080757;28;20216;-74
2020/12/02 10:27:30;;;;;;;65.00;44.10;;;2.80;1.00;;;;;;5084443;28;20271;-72
2020/12/02 10:30:09;;;;;;;62.55;40.70;;;2.80;1.00;;;;;;5079657;28;20301;-73
2020/12/02 10:33:05;;;;;;;57.47;41.30;;;2.90;1.00;;;;;;5076426;28;20738;-72
2020/12/02 10:35:35;;;;;;;67.55;47.35;;;2.90;1.00;;;;;;5078128;28;20224;-73
2020/12/02 10:38:06;;;;;;;61.83;41.65;;;2.90;1.00;;;;;;5086968;28;20324;-73
2020/12/02 10:40:38;;;;;;;67.32;43.90;;;3.00;1.00;;;;;;5088842;28;20331;-73
2020/12/02 10:43:15;;;;;;;57.20;43.08;;;3.10;1.00;;;;;;5092022;28;20224;-73
2020/12/02 10:45:41;;;;;;;61.60;44.20;;;3.20;1.00;;;;;;5085906;28;20230;-74
2020/12/02 10:48:21;;;;;;;56.28;41.70;;;3.20;1.00;;;;;;5078920;28;20299;-72
2020/12/02 10:50:49;;;;;;;63.28;41.92;;;3.20;1.00;;;;;;5075873;28;20271;-73
2020/12/02 10:53:18;;;;;;;50.22;39.03;;;3.20;1.00;;;;;;5150853;22;20230;-75
2020/12/02 10:55:44;;;;;;;59.47;41.38;;;3.30;1.00;;;;;;5036853;28;20289;-75
2020/12/02 10:58:17;;;;;;;62.05;41.55;;;3.40;1.00;;;;;;5025534;28;20857;-73
2020/12/02 11:00:44;;;;;;;54.42;38.78;;;3.40;1.00;;;;;;5021411;28;20223;-75
2020/12/02 11:03:19;;;;;;;55.67;39.90;;;3.50;1.00;;;;;;5027265;28;20269;-75
2020/12/02 11:06:14;;;;;;;56.15;39.63;;;3.50;1.00;;;;;;5026920;28;20217;-74
2020/12/02 11:08:52;;;;;;;61.08;40.58;;;3.60;1.00;;;;;;5025914;28;20218;-74
2020/12/02 11:11:33;;;;;;;62.20;43.03;;;3.70;1.00;;;;;;5032222;28;20253;-75
2020/12/02 11:14:08;;;;;;;55.42;36.85;;;3.70;1.00;;;;;;5027473;28;20863;-74
2020/12/02 11:16:41;;;;;;;53.72;38.60;;;3.80;1.00;;;;;;5027310;28;20261;-75
2020/12/02 11:19:28;;;;;;;56.17;38.70;;;3.80;1.00;;;;;;5021496;28;21733;-76
2020/12/02 11:22:05;;;;;;;56.05;38.42;;;3.80;1.00;;;;;;5024748;28;20304;-75
2020/12/02 11:24:54;;;;;;;50.65;38.47;;;3.70;1.00;;;;;;5023791;28;20787;-75
2020/12/02 11:27:20;;;;;;;60.20;40.60;;;3.80;1.00;;;;;;5029394;28;20285;-74
2020/12/02 11:29:48;;;;;;;55.60;39.55;;;3.90;1.00;;;;;;5026731;28;20856;-73
2020/12/02 11:32:54;;;;;;;55.38;38.90;;;3.80;1.00;;;;;;5026357;28;20222;-74
2020/12/02 11:35:46;;;;;;;53.50;37.08;;;3.70;1.00;;;;;;5012483;28;20312;-74
2020/12/02 11:38:22;;;;;;;53.63;39.60;;;3.50;1.00;;;;;;5029048;28;20409;-74
2020/12/02 11:40:57;;;;;;;52.00;38.90;;;3.50;1.00;;;;;;5022225;28;21209;-73
2020/12/02 11:43:27;;;;;;;55.42;37.65;;;3.70;1.00;;;;;;5030616;28;21092;-74
2020/12/02 11:45:55;;;;;;;53.10;38.85;;;3.80;1.00;;;;;;5020905;28;22253;-75
2020/12/02 11:48:26;;;;;;;56.13;37.20;;;3.70;1.00;;;;;;5019244;28;20949;-72
2020/12/02 11:51:03;;;;;;;45.78;37.90;;;3.80;1.00;;;;;;5028618;28;20226;-75
2020/12/02 11:53:44;;;;;;;53.75;39.00;;;3.90;1.00;;;;;;5022102;28;20228;-73
2020/12/02 11:56:14;;;;;;;53.40;39.70;;;4.10;1.00;;;;;;5023098;28;20225;-74
2020/12/02 11:58:42;;;;;;;48.17;34.33;;;4.00;1.00;;;;;;5013814;28;20241;-74
2020/12/02 12:01:18;;;;;;;53.28;35.83;;;4.00;1.00;;;;;;5021230;28;20385;-73
2020/12/02 12:03:54;;;;;;;57.70;37.92;;;3.90;1.00;;;;;;5020134;28;20222;-75
2020/12/02 12:06:26;;;;;;;50.90;37.35;;;4.00;1.00;;;;;;5021150;28;21302;-73
2020/12/02 12:09:08;;;;;;;51.92;39.60;;;3.90;1.00;;;;;;5019356;28;20293;-74
2020/12/02 12:11:37;;;;;;;58.15;38.28;;;4.00;1.00;;;;;;5044467;28;20240;-73
2020/12/02 12:14:10;;;;;;;51.15;39.53;;;4.10;1.00;;;;;;5035871;28;20237;-71
2020/12/02 12:16:46;;;;;;;54.75;38.25;;;4.20;1.00;;;;;;5025575;28;20257;-73
2020/12/02 12:19:26;;;;;;;48.53;35.72;;;4.20;1.00;;;;;;5031954;28;20269;-73
2020/12/02 12:22:04;;;;;;;56.35;37.67;;;4.20;1.00;;;;;;5016889;28;21246;-72
2020/12/02 12:24:30;;;;;;;52.70;38.45;;;4.20;1.00;;;;;;5019779;28;20230;-73
2020/12/02 12:26:56;;;;;;;52.28;37.78;;;4.20;1.00;;;;;;4993913;28;20333;-73
2020/12/02 12:29:23;;;;;;;56.05;37.50;;;4.20;1.00;;;;;;5014125;28;20313;-74
2020/12/02 12:31:52;;;;;;;53.70;39.42;;;4.30;1.00;;;;;;5009791;28;20308;-74
2020/12/02 12:34:32;;;;;;;48.60;35.80;;;4.40;1.00;;;;;;5015848;28;20393;-73
2020/12/02 12:37:03;;;;;;;50.65;37.42;;;4.30;1.00;;;;;;5015393;28;20364;-74
2020/12/02 12:39:37;;;;;;;44.92;35.55;;;4.30;1.00;;;;;;5019330;28;20336;-74
2020/12/02 12:42:04;;;;;;;45.00;34.50;;;4.40;1.00;;;;;;5020779;28;20238;-74
2020/12/02 12:44:33;;;;;;;47.78;37.33;;;4.40;1.00;;;;;;5014442;28;20223;-74
2020/12/02 12:47:14;;;;;;;54.78;38.35;;;4.50;1.00;;;;;;4996597;28;20249;-74
2020/12/02 12:49:40;;;;;;;50.85;37.97;;;4.60;1.00;;;;;;5005519;28;20240;-74
2020/12/02 12:52:12;;;;;;;44.85;33.83;;;4.60;1.00;;;;;;5006096;28;20666;-73
2020/12/02 12:54:38;;;;;;;51.35;36.10;;;4.60;1.00;;;;;;5006084;28;20294;-73
2020/12/02 12:57:04;;;;;;;43.63;34.13;;;4.50;1.00;;;;;;5009616;28;20233;-73
2020/12/02 12:59:32;;;;;;;53.90;36.33;;;4.50;1.00;;;;;;5007970;28;20376;-72
2020/12/02 13:01:59;;;;;;;50.83;34.95;;;4.50;1.00;;;;;;5009953;28;21137;-73